Time;durP1;ratioP1;P1;durP2;ratioP2;P2;SDS_P1;SDS_P2;PMS_P1;PMS_P2;Temp;Humidity;BMP_temperature;BMP_pressure;BME280_temperature;BME280_humidity;BME280_pressure;Samples;Min_cycle;Max_cycle;Signal;HPM_P1;HPM_P2
2023/05/06 00:01:04;;;;;;;69.60;42.73;;;;;;;;;;5055463;28;20220;-68
2023/05/06 00:03:30;;;;;;;70.20;44.47;;;;;;;;;;5073360;28;20177;-68
2023/05/06 00:05:56;;;;;;;64.03;41.50;;;;;;;;;;5073353;28;20201;-68
2023/05/06 00:08:22;;;;;;;70.20;44.40;;;;;;;;;;5073363;28;20184;-68
2023/05/06 00:10:48;;;;;;;77.07;45.90;;;;;;;;;;5073406;28;20182;-68
2023/05/06 00:13:14;;;;;;;66.37;43.23;;;;;;;;;;5073576;28;20238;-68
2023/05/06 00:15:40;;;;;;;72.37;44.80;;;;;;;;;;5073180;28;20263;-68
2023/05/06 00:18:07;;;;;;;72.20;46.27;;;;;;;;;;5055330;28;20177;-68
2023/05/06 00:20:33;;;;;;;73.07;46.07;;;;;;;;;;5073636;28;20765;-68
2023/05/06 00:22:59;;;;;;;71.90;45.10;;;;;;;;;;5073113;28;20643;-69
2023/05/06 00:25:25;;;;;;;70.20;43.67;;;;;;;;;;5073274;28;20201;-69
2023/05/06 00:27:52;;;;;;;71.80;44.73;;;;;;;;;;5055695;28;20628;-67
2023/05/06 00:30:18;;;;;;;71.70;40.07;;;;;;;;;;5055252;28;20192;-67
2023/05/06 00:32:44;;;;;;;69.00;40.90;;;;;;;;;;5073036;28;20265;-70
2023/05/06 00:35:10;;;;;;;62.63;38.17;;;;;;;;;;5054898;28;20213;-68
2023/05/06 00:37:36;;;;;;;61.40;36.47;;;;;;;;;;5072954;28;20260;-68
2023/05/06 00:40:03;;;;;;;65.10;37.23;;;;;;;;;;5073140;28;20220;-67
2023/05/06 00:42:28;;;;;;;64.97;37.30;;;;;;;;;;5054970;28;20220;-68
2023/05/06 00:44:54;;;;;;;69.97;39.90;;;;;;;;;;5054926;28;20213;-68
2023/05/06 00:47:21;;;;;;;64.47;37.37;;;;;;;;;;5073440;28;20205;-68
2023/05/06 00:49:47;;;;;;;64.33;37.07;;;;;;;;;;5072983;28;20659;-68
2023/05/06 00:52:14;;;;;;;65.83;36.50;;;;;;;;;;5072894;28;20182;-69
2023/05/06 00:54:40;;;;;;;71.80;43.00;;;;;;;;;;5054578;28;20700;-69
2023/05/06 00:57:06;;;;;;;76.27;43.83;;;;;;;;;;5054943;28;20181;-68
2023/05/06 00:59:32;;;;;;;67.83;38.90;;;;;;;;;;5073199;28;20262;-68
2023/05/06 01:01:59;;;;;;;63.30;37.27;;;;;;;;;;5058680;28;20213;-67
2023/05/06 01:04:25;;;;;;;70.00;38.83;;;;;;;;;;5076733;28;20174;-68
2023/05/06 01:06:55;;;;;;;67.37;38.33;;;;;;;;;;5076423;28;20178;-68
2023/05/06 01:09:32;;;;;;;68.73;37.87;;;;;;;;;;5076497;28;20174;-68
2023/05/06 01:12:16;;;;;;;79.47;40.90;;;;;;;;;;5076483;28;20203;-68
2023/05/06 01:15:05;;;;;;;74.53;39.43;;;;;;;;;;5076552;28;20278;-67
2023/05/06 01:17:32;;;;;;;70.33;38.00;;;;;;;;;;5076689;28;20174;-68
2023/05/06 01:20:00;;;;;;;66.03;36.73;;;;;;;;;;5076608;28;20190;-68
2023/05/06 01:22:27;;;;;;;62.87;35.27;;;;;;;;;;5076206;28;20205;-68
2023/05/06 01:24:53;;;;;;;70.03;37.60;;;;;;;;;;5076054;28;20198;-67
2023/05/06 01:27:19;;;;;;;71.83;39.37;;;;;;;;;;5076199;28;20193;-67
2023/05/06 01:29:46;;;;;;;76.80;39.97;;;;;;;;;;5076234;28;20182;-68
2023/05/06 01:32:12;;;;;;;86.17;42.57;;;;;;;;;;5076270;28;20227;-68
2023/05/06 01:34:38;;;;;;;84.30;41.47;;;;;;;;;;5057937;28;20205;-68
2023/05/06 01:37:22;;;;;;;77.70;39.87;;;;;;;;;;5075826;28;20170;-68
2023/05/06 01:39:49;;;;;;;101.40;45.47;;;;;;;;;;5094687;22;20261;-68
2023/05/06 01:42:16;;;;;;;101.07;45.60;;;;;;;;;;5076012;28;20170;-68
2023/05/06 01:44:42;;;;;;;75.97;39.63;;;;;;;;;;5057515;28;20667;-69
2023/05/06 01:47:08;;;;;;;84.57;40.60;;;;;;;;;;5057311;28;20174;-68
2023/05/06 01:49:34;;;;;;;82.73;41.17;;;;;;;;;;5075608;28;20251;-68
2023/05/06 01:52:01;;;;;;;73.27;38.70;;;;;;;;;;5057815;28;20216;-68
2023/05/06 01:54:27;;;;;;;80.57;40.30;;;;;;;;;;5075258;28;20258;-68
2023/05/06 01:56:53;;;;;;;87.10;41.63;;;;;;;;;;5075325;28;20253;-68
2023/05/06 01:59:19;;;;;;;85.37;41.43;;;;;;;;;;5075154;28;20236;-68
2023/05/06 02:01:45;;;;;;;91.07;43.60;;;;;;;;;;5075138;28;20178;-68
2023/05/06 02:04:11;;;;;;;81.57;41.20;;;;;;;;;;5057305;28;20182;-68
2023/05/06 02:06:37;;;;;;;109.43;48.47;;;;;;;;;;5057054;28;20181;-68
2023/05/06 02:09:03;;;;;;;86.40;42.40;;;;;;;;;;5074986;28;20244;-68
2023/05/06 02:11:29;;;;;;;88.67;42.57;;;;;;;;;;5074317;28;20185;-68
2023/05/06 02:13:55;;;;;;;86.20;42.23;;;;;;;;;;5075438;28;20558;-68
2023/05/06 02:16:21;;;;;;;89.63;42.93;;;;;;;;;;5056924;28;20209;-68
2023/05/06 02:18:47;;;;;;;94.03;45.10;;;;;;;;;;5074756;28;20259;-68
2023/05/06 02:21:13;;;;;;;89.97;45.20;;;;;;;;;;5057135;28;20681;-68
2023/05/06 02:23:39;;;;;;;94.57;45.80;;;;;;;;;;5074736;28;20201;-68
2023/05/06 02:26:05;;;;;;;104.37;46.13;;;;;;;;;;5074642;28;20206;-68
2023/05/06 02:28:31;;;;;;;106.30;47.83;;;;;;;;;;5074663;28;20182;-68
2023/05/06 02:30:57;;;;;;;110.83;48.40;;;;;;;;;;5074935;28;20675;-68
2023/05/06 02:33:23;;;;;;;107.00;47.80;;;;;;;;;;5056693;28;20681;-68
2023/05/06 02:35:50;;;;;;;109.80;48.87;;;;;;;;;;5056420;28;20675;-68
2023/05/06 02:38:16;;;;;;;107.87;47.80;;;;;;;;;;5074394;28;20188;-68
2023/05/06 02:40:42;;;;;;;108.93;48.63;;;;;;;;;;5056192;28;20221;-68
2023/05/06 02:43:08;;;;;;;111.50;49.37;;;;;;;;;;5057238;28;20261;-68
2023/05/06 02:45:34;;;;;;;118.53;50.73;;;;;;;;;;5056410;28;20181;-68
2023/05/06 02:48:00;;;;;;;121.07;51.30;;;;;;;;;;5057057;28;20187;-68
2023/05/06 02:50:25;;;;;;;126.27;50.53;;;;;;;;;;5074796;28;20290;-69
2023/05/06 02:52:51;;;;;;;116.00;50.90;;;;;;;;;;5056808;28;20186;-68
2023/05/06 02:55:18;;;;;;;118.33;50.83;;;;;;;;;;5056234;28;20228;-68
2023/05/06 02:57:44;;;;;;;117.23;50.07;;;;;;;;;;5056277;28;20660;-68
2023/05/06 03:00:10;;;;;;;124.50;51.10;;;;;;;;;;5056114;28;20276;-68
2023/05/06 03:02:36;;;;;;;126.87;49.90;;;;;;;;;;5074133;28;20188;-68
2023/05/06 03:05:05;;;;;;;131.83;50.90;;;;;;;;;;5073887;28;20609;-68
2023/05/06 03:07:31;;;;;;;116.50;49.37;;;;;;;;;;5055928;28;20212;-68
2023/05/06 03:09:57;;;;;;;115.47;49.00;;;;;;;;;;5055896;28;20209;-68
2023/05/06 03:12:23;;;;;;;115.07;48.60;;;;;;;;;;5073715;28;20174;-68
2023/05/06 03:14:49;;;;;;;124.97;49.33;;;;;;;;;;5073701;28;20667;-69
2023/05/06 03:17:15;;;;;;;114.67;48.83;;;;;;;;;;5055736;28;20219;-68
2023/05/06 03:19:41;;;;;;;115.80;49.63;;;;;;;;;;5073503;28;20609;-68
2023/05/06 03:22:07;;;;;;;118.30;49.80;;;;;;;;;;5055730;28;20182;-68
2023/05/06 03:24:33;;;;;;;114.93;48.27;;;;;;;;;;5073739;28;20213;-68
2023/05/06 03:27:00;;;;;;;120.27;46.93;;;;;;;;;;5073861;28;20182;-68
2023/05/06 03:29:26;;;;;;;118.43;48.83;;;;;;;;;;5073410;28;20196;-69
2023/05/06 03:31:55;;;;;;;125.13;48.50;;;;;;;;;;5055616;28;20185;-68
2023/05/06 03:34:21;;;;;;;106.00;47.53;;;;;;;;;;5056232;28;20186;-68
2023/05/06 03:36:47;;;;;;;118.83;49.87;;;;;;;;;;5055520;28;20174;-67
2023/05/06 03:39:13;;;;;;;119.93;49.20;;;;;;;;;;5073280;28;20209;-69
2023/05/06 03:41:39;;;;;;;115.47;49.30;;;;;;;;;;5056166;28;20627;-68
2023/05/06 03:44:05;;;;;;;109.43;47.90;;;;;;;;;;5074080;28;20249;-68
2023/05/06 03:46:31;;;;;;;118.40;47.83;;;;;;;;;;5073643;28;20204;-68
2023/05/06 03:48:59;;;;;;;115.03;49.00;;;;;;;;;;5073375;28;20208;-68
2023/05/06 03:51:26;;;;;;;111.67;49.20;;;;;;;;;;5073475;28;20182;-67
2023/05/06 03:53:52;;;;;;;129.20;52.60;;;;;;;;;;5073234;28;20268;-68
2023/05/06 03:56:18;;;;;;;135.40;52.40;;;;;;;;;;5055162;28;20237;-68
2023/05/06 03:58:44;;;;;;;150.60;54.13;;;;;;;;;;5073066;28;20693;-67
2023/05/06 04:01:10;;;;;;;165.00;56.87;;;;;;;;;;5073152;28;20695;-68
2023/05/06 04:03:36;;;;;;;197.93;59.60;;;;;;;;;;5055245;28;20178;-68
2023/05/06 04:06:02;;;;;;;149.40;57.00;;;;;;;;;;5072985;28;20189;-68
2023/05/06 04:08:28;;;;;;;170.10;57.70;;;;;;;;;;5073012;28;20269;-68
2023/05/06 04:10:54;;;;;;;202.17;57.67;;;;;;;;;;5055118;28;20225;-68
2023/05/06 04:13:20;;;;;;;193.23;57.50;;;;;;;;;;5073079;28;20554;-68
2023/05/06 04:15:47;;;;;;;196.97;58.67;;;;;;;;;;5054891;28;20212;-68
2023/05/06 04:18:17;;;;;;;301.80;58.23;;;;;;;;;;5054936;28;20210;-68
2023/05/06 04:20:45;;;;;;;169.93;54.87;;;;;;;;;;5054882;28;20200;-67
2023/05/06 04:23:11;;;;;;;153.27;54.90;;;;;;;;;;5055223;28;20174;-67
2023/05/06 04:25:37;;;;;;;183.43;55.77;;;;;;;;;;5056388;28;20180;-68
2023/05/06 04:28:03;;;;;;;147.07;55.10;;;;;;;;;;5073144;28;20170;-68
2023/05/06 04:30:29;;;;;;;146.93;53.03;;;;;;;;;;5054936;28;20227;-68
2023/05/06 04:32:55;;;;;;;171.77;56.40;;;;;;;;;;5054781;28;20178;-68
2023/05/06 04:35:22;;;;;;;156.00;54.47;;;;;;;;;;5056009;28;20205;-68
2023/05/06 04:37:49;;;;;;;146.27;51.43;;;;;;;;;;5058937;28;20170;-69
2023/05/06 04:40:15;;;;;;;132.57;50.37;;;;;;;;;;5058598;28;20229;-69
2023/05/06 04:42:41;;;;;;;148.00;54.47;;;;;;;;;;5076711;28;20166;-69
2023/05/06 04:45:08;;;;;;;164.03;51.47;;;;;;;;;;5076573;28;20174;-68
2023/05/06 04:47:34;;;;;;;241.53;53.97;;;;;;;;;;5076760;28;20225;-68
2023/05/06 04:50:00;;;;;;;390.87;58.60;;;;;;;;;;5076639;28;20193;-68
2023/05/06 04:52:26;;;;;;;252.40;56.73;;;;;;;;;;5058482;28;20180;-68
2023/05/06 04:54:52;;;;;;;249.07;55.80;;;;;;;;;;5076509;28;20705;-68
2023/05/06 04:57:18;;;;;;;267.67;56.67;;;;;;;;;;5077040;28;20248;-68
2023/05/06 04:59:44;;;;;;;396.63;58.93;;;;;;;;;;5077068;28;20255;-68
2023/05/06 05:02:10;;;;;;;311.43;58.73;;;;;;;;;;5077002;28;20170;-69
2023/05/06 05:04:36;;;;;;;205.37;57.53;;;;;;;;;;5059418;28;20204;-68
2023/05/06 05:07:02;;;;;;;389.27;62.27;;;;;;;;;;5077138;28;20178;-68
2023/05/06 05:09:28;;;;;;;204.03;58.23;;;;;;;;;;5077232;28;20276;-68
2023/05/06 05:11:54;;;;;;;426.90;64.07;;;;;;;;;;5078166;28;20177;-67
2023/05/06 05:14:20;;;;;;;304.90;61.17;;;;;;;;;;5077591;28;20182;-68
2023/05/06 05:16:46;;;;;;;390.90;63.33;;;;;;;;;;5081245;28;20261;-69
2023/05/06 05:19:12;;;;;;;266.47;61.80;;;;;;;;;;5071203;28;20201;-67
2023/05/06 05:21:38;;;;;;;401.70;62.60;;;;;;;;;;5059582;28;20666;-67
2023/05/06 05:24:04;;;;;;;294.80;58.23;;;;;;;;;;5058305;28;20686;-67
2023/05/06 05:26:30;;;;;;;190.00;56.07;;;;;;;;;;5058269;28;20178;-67
2023/05/06 05:28:56;;;;;;;173.47;57.03;;;;;;;;;;5057931;28;20182;-67
2023/05/06 05:31:22;;;;;;;174.80;56.77;;;;;;;;;;5058104;28;20260;-67
2023/05/06 05:33:48;;;;;;;158.97;56.90;;;;;;;;;;5057925;28;20230;-69
2023/05/06 05:36:15;;;;;;;156.60;55.40;;;;;;;;;;5075965;28;20201;-68
2023/05/06 05:38:40;;;;;;;146.07;52.97;;;;;;;;;;5075689;28;20174;-68
2023/05/06 05:41:06;;;;;;;121.50;50.47;;;;;;;;;;5057583;28;20213;-68
2023/05/06 05:43:32;;;;;;;115.60;50.20;;;;;;;;;;5075548;28;20174;-68
2023/05/06 05:45:58;;;;;;;117.80;52.43;;;;;;;;;;5057541;28;20182;-68
2023/05/06 05:48:24;;;;;;;110.60;50.77;;;;;;;;;;5057086;28;20178;-68
2023/05/06 05:50:50;;;;;;;84.70;43.30;;;;;;;;;;5058214;28;20248;-68
2023/05/06 05:53:16;;;;;;;83.97;44.73;;;;;;;;;;5057843;28;20182;-68
2023/05/06 05:55:42;;;;;;;80.07;44.30;;;;;;;;;;5057654;28;20296;-68
2023/05/06 05:58:10;;;;;;;70.63;40.33;;;;;;;;;;5057588;28;20636;-69
2023/05/06 06:00:36;;;;;;;75.00;41.03;;;;;;;;;;5057332;28;20206;-68
2023/05/06 06:03:02;;;;;;;74.77;41.03;;;;;;;;;;5075231;28;20220;-68
2023/05/06 06:05:28;;;;;;;67.60;38.30;;;;;;;;;;5057214;28;20217;-68
2023/05/06 06:07:54;;;;;;;68.87;40.40;;;;;;;;;;5057640;28;20181;-68
2023/05/06 06:10:20;;;;;;;79.80;43.20;;;;;;;;;;5075129;28;20250;-68
2023/05/06 06:12:46;;;;;;;65.63;39.33;;;;;;;;;;5075181;28;20256;-68
2023/05/06 06:15:12;;;;;;;65.10;37.97;;;;;;;;;;5056998;28;20212;-68
2023/05/06 06:17:38;;;;;;;63.07;38.40;;;;;;;;;;5075356;28;20178;-68
2023/05/06 06:20:04;;;;;;;66.07;38.40;;;;;;;;;;5057223;28;20194;-68
2023/05/06 06:22:30;;;;;;;61.77;37.23;;;;;;;;;;5074939;28;20508;-68
2023/05/06 06:24:56;;;;;;;57.87;35.40;;;;;;;;;;5074769;28;20181;-68
2023/05/06 06:27:22;;;;;;;61.07;37.57;;;;;;;;;;5074725;28;20185;-68
2023/05/06 06:29:48;;;;;;;61.47;36.87;;;;;;;;;;5056610;28;20284;-69
2023/05/06 06:32:14;;;;;;;59.83;37.80;;;;;;;;;;5074513;28;20177;-68
2023/05/06 06:34:40;;;;;;;55.57;36.17;;;;;;;;;;5075311;28;20201;-69
2023/05/06 06:37:09;;;;;;;60.03;35.73;;;;;;;;;;5074516;28;20544;-69
2023/05/06 06:39:35;;;;;;;60.90;36.67;;;;;;;;;;5074525;28;20205;-68
2023/05/06 06:42:03;;;;;;;61.03;36.87;;;;;;;;;;5074616;28;20177;-68
2023/05/06 06:44:29;;;;;;;61.40;36.97;;;;;;;;;;5056345;28;20182;-69
2023/05/06 06:46:55;;;;;;;57.27;35.53;;;;;;;;;;5056315;28;20659;-68
2023/05/06 06:49:21;;;;;;;53.57;33.63;;;;;;;;;;5056470;28;20194;-68
2023/05/06 06:51:47;;;;;;;51.60;31.97;;;;;;;;;;5074151;28;20227;-68
2023/05/06 06:54:13;;;;;;;46.73;31.53;;;;;;;;;;5056269;28;20643;-68
2023/05/06 06:56:39;;;;;;;42.53;29.30;;;;;;;;;;5074542;28;20596;-68
2023/05/06 06:59:04;;;;;;;48.80;32.27;;;;;;;;;;5056121;28;20579;-68
2023/05/06 07:01:30;;;;;;;43.33;30.40;;;;;;;;;;5056422;28;20185;-69
2023/05/06 07:03:56;;;;;;;50.07;33.53;;;;;;;;;;5056198;28;20185;-68
2023/05/06 07:06:22;;;;;;;40.67;28.27;;;;;;;;;;5056088;28;20186;-69
2023/05/06 07:08:48;;;;;;;30.83;23.37;;;;;;;;;;5056015;28;20227;-68
2023/05/06 07:11:14;;;;;;;33.73;24.33;;;;;;;;;;5056089;28;20234;-68
2023/05/06 07:13:40;;;;;;;35.17;24.30;;;;;;;;;;5073939;28;20182;-69
2023/05/06 07:16:06;;;;;;;28.20;19.97;;;;;;;;;;5073936;28;20201;-68
2023/05/06 07:18:32;;;;;;;32.50;22.10;;;;;;;;;;5073977;28;20312;-68
2023/05/06 07:20:58;;;;;;;34.77;24.83;;;;;;;;;;5074226;28;20202;-68
2023/05/06 07:23:24;;;;;;;35.73;24.20;;;;;;;;;;5074357;28;20178;-68
2023/05/06 07:25:50;;;;;;;26.23;19.90;;;;;;;;;;5056503;28;20268;-69
2023/05/06 07:28:16;;;;;;;29.20;20.43;;;;;;;;;;5074625;28;20646;-69
2023/05/06 07:30:42;;;;;;;31.53;23.30;;;;;;;;;;5073642;28;20586;-69
2023/05/06 07:33:08;;;;;;;30.53;21.97;;;;;;;;;;5055515;28;20670;-68
2023/05/06 07:35:34;;;;;;;31.27;21.00;;;;;;;;;;5073399;28;20205;-67
2023/05/06 07:38:00;;;;;;;23.53;18.27;;;;;;;;;;5074065;28;20181;-69
2023/05/06 07:40:27;;;;;;;24.87;19.53;;;;;;;;;;5055370;28;20280;-69
2023/05/06 07:42:53;;;;;;;28.00;20.70;;;;;;;;;;5073631;28;20707;-68
2023/05/06 07:45:22;;;;;;;26.40;18.10;;;;;;;;;;5073341;28;20261;-70
2023/05/06 07:47:48;;;;;;;24.97;18.57;;;;;;;;;;5055316;28;20235;-69
2023/05/06 07:50:14;;;;;;;29.70;17.77;;;;;;;;;;5073412;28;20206;-69
2023/05/06 07:52:40;;;;;;;19.87;16.77;;;;;;;;;;5073865;28;20257;-69
2023/05/06 07:55:08;;;;;;;20.03;15.07;;;;;;;;;;5073131;28;20297;-68
2023/05/06 07:57:34;;;;;;;14.53;12.13;;;;;;;;;;5073306;28;20176;-69
2023/05/06 08:00:00;;;;;;;16.80;13.10;;;;;;;;;;5073123;28;20285;-69
2023/05/06 08:02:26;;;;;;;21.20;12.20;;;;;;;;;;5073462;28;20599;-68
2023/05/06 08:04:52;;;;;;;13.33;12.00;;;;;;;;;;5073137;28;20186;-69
2023/05/06 08:07:19;;;;;;;15.63;13.07;;;;;;;;;;5055143;28;20234;-69
2023/05/06 08:09:45;;;;;;;20.80;13.93;;;;;;;;;;5072114;28;20199;-69
2023/05/06 08:12:11;;;;;;;19.70;14.97;;;;;;;;;;5073102;28;20178;-68
2023/05/06 08:14:37;;;;;;;17.70;14.30;;;;;;;;;;5072782;28;20185;-68
2023/05/06 08:17:03;;;;;;;18.13;13.60;;;;;;;;;;5072937;28;20283;-69
2023/05/06 08:19:29;;;;;;;15.00;13.47;;;;;;;;;;5054960;28;20193;-69
2023/05/06 08:21:55;;;;;;;16.73;13.43;;;;;;;;;;5072936;28;20176;-68
2023/05/06 08:24:21;;;;;;;14.50;13.00;;;;;;;;;;5073045;28;20174;-68
2023/05/06 08:26:47;;;;;;;17.70;12.60;;;;;;;;;;5072736;28;20196;-69
2023/05/06 08:29:13;;;;;;;15.27;11.20;;;;;;;;;;5054692;28;20710;-69
2023/05/06 08:31:39;;;;;;;14.57;11.10;;;;;;;;;;5073174;28;20678;-68
2023/05/06 08:34:05;;;;;;;11.00;9.73;;;;;;;;;;5073117;28;20589;-69
2023/05/06 08:36:31;;;;;;;12.43;10.00;;;;;;;;;;5072660;28;20256;-68
2023/05/06 08:38:57;;;;;;;10.93;9.03;;;;;;;;;;5072654;28;20185;-68
2023/05/06 08:41:24;;;;;;;10.10;8.13;;;;;;;;;;5055011;28;20561;-68
2023/05/06 08:43:50;;;;;;;10.80;7.67;;;;;;;;;;5073912;28;20253;-68
2023/05/06 08:46:17;;;;;;;8.13;6.23;;;;;;;;;;5064375;28;20655;-68
2023/05/06 08:48:43;;;;;;;9.63;6.80;;;;;;;;;;5055229;28;20186;-68
2023/05/06 08:51:09;;;;;;;9.83;5.90;;;;;;;;;;5072682;28;20330;-68
2023/05/06 08:53:35;;;;;;;9.20;6.53;;;;;;;;;;5054948;28;20185;-68
2023/05/06 08:56:05;;;;;;;7.43;6.03;;;;;;;;;;5072817;28;20582;-68
2023/05/06 08:58:33;;;;;;;8.83;6.40;;;;;;;;;;5072937;28;20158;-68
2023/05/06 09:01:00;;;;;;;9.47;6.33;;;;;;;;;;5073104;28;20197;-68
2023/05/06 09:03:26;;;;;;;10.63;7.70;;;;;;;;;;5055117;28;20619;-68
2023/05/06 09:05:53;;;;;;;8.30;6.70;;;;;;;;;;5054925;28;20217;-68
2023/05/06 09:08:19;;;;;;;9.90;8.87;;;;;;;;;;5054788;28;20273;-68
2023/05/06 09:10:45;;;;;;;8.10;7.03;;;;;;;;;;5054567;28;20197;-69
2023/05/06 09:13:15;;;;;;;9.80;6.47;;;;;;;;;;5054581;28;20178;-68
2023/05/06 09:15:48;;;;;;;10.70;5.43;;;;;;;;;;5072453;28;20267;-70
2023/05/06 09:18:17;;;;;;;6.30;5.10;;;;;;;;;;5054763;28;20206;-70
2023/05/06 09:20:47;;;;;;;10.60;7.37;;;;;;;;;;5072475;28;20197;-69
2023/05/06 09:23:14;;;;;;;9.20;6.90;;;;;;;;;;5075951;28;20678;-70
2023/05/06 09:25:41;;;;;;;7.23;6.53;;;;;;;;;;5075792;28;20182;-69
2023/05/06 09:28:08;;;;;;;11.70;6.80;;;;;;;;;;5075741;28;20239;-69
2023/05/06 09:30:37;;;;;;;5.10;4.00;;;;;;;;;;5075848;28;20247;-69
2023/05/06 09:33:03;;;;;;;6.40;4.87;;;;;;;;;;5075922;28;20647;-69
2023/05/06 09:35:35;;;;;;;7.60;5.20;;;;;;;;;;5057978;28;20209;-69
2023/05/06 09:38:01;;;;;;;8.13;5.90;;;;;;;;;;5058582;28;20281;-69
2023/05/06 09:40:28;;;;;;;7.03;6.17;;;;;;;;;;5076869;28;20707;-69
2023/05/06 09:42:55;;;;;;;14.33;6.60;;;;;;;;;;5057809;28;20196;-70
2023/05/06 09:45:23;;;;;;;7.27;6.37;;;;;;;;;;5057686;28;20178;-69
2023/05/06 09:47:49;;;;;;;8.67;6.33;;;;;;;;;;5075819;28;20335;-69
2023/05/06 09:50:15;;;;;;;9.87;7.33;;;;;;;;;;5057426;28;20613;-69
2023/05/06 09:52:44;;;;;;;9.30;6.27;;;;;;;;;;5075532;28;20182;-69
2023/05/06 09:55:11;;;;;;;12.20;6.57;;;;;;;;;;5057361;28;20206;-69
2023/05/06 09:57:37;;;;;;;12.40;7.67;;;;;;;;;;5075124;28;20208;-70
2023/05/06 10:00:05;;;;;;;12.67;6.70;;;;;;;;;;5075233;28;20263;-69
2023/05/06 10:02:32;;;;;;;12.00;6.87;;;;;;;;;;5075853;28;20172;-69
2023/05/06 10:04:58;;;;;;;8.17;7.13;;;;;;;;;;5075179;28;20190;-70
2023/05/06 10:07:27;;;;;;;7.27;6.07;;;;;;;;;;5074971;28;20692;-69
2023/05/06 10:09:53;;;;;;;7.50;6.07;;;;;;;;;;5075002;28;20221;-70
2023/05/06 10:12:20;;;;;;;11.77;7.33;;;;;;;;;;5075091;28;20268;-69
2023/05/06 10:14:46;;;;;;;7.13;5.67;;;;;;;;;;5074859;28;20209;-69
2023/05/06 10:17:12;;;;;;;9.57;5.27;;;;;;;;;;5057006;28;20189;-70
2023/05/06 10:19:40;;;;;;;8.73;6.97;;;;;;;;;;5075014;28;20738;-69
2023/05/06 10:22:21;;;;;;;8.03;6.27;;;;;;;;;;5074938;28;20271;-69
2023/05/06 10:24:55;;;;;;;7.43;5.83;;;;;;;;;;5074979;28;20201;-69
2023/05/06 10:27:26;;;;;;;7.87;5.23;;;;;;;;;;5075183;28;20170;-69
2023/05/06 10:29:58;;;;;;;6.80;5.43;;;;;;;;;;5056780;28;20202;-69
2023/05/06 10:32:26;;;;;;;9.10;4.93;;;;;;;;;;5074374;28;20177;-70
2023/05/06 10:34:53;;;;;;;4.50;3.77;;;;;;;;;;5075188;28;20208;-70
2023/05/06 10:37:24;;;;;;;7.30;4.17;;;;;;;;;;5074566;28;20587;-69
2023/05/06 10:39:50;;;;;;;6.60;3.43;;;;;;;;;;5056607;28;20222;-69
2023/05/06 10:42:17;;;;;;;5.43;3.33;;;;;;;;;;5074515;28;20640;-69
2023/05/06 10:45:02;;;;;;;7.33;3.97;;;;;;;;;;5074986;28;20182;-69
2023/05/06 10:47:48;;;;;;;10.00;5.00;;;;;;;;;;5056434;28;20178;-69
2023/05/06 10:50:18;;;;;;;7.50;4.90;;;;;;;;;;5055927;28;20197;-69
2023/05/06 10:52:45;;;;;;;9.60;5.70;;;;;;;;;;5074160;28;20307;-69
2023/05/06 10:55:29;;;;;;;8.03;5.67;;;;;;;;;;5056419;28;20236;-69
2023/05/06 10:58:10;;;;;;;8.10;4.80;;;;;;;;;;5074042;28;20178;-69
2023/05/06 11:00:36;;;;;;;4.97;4.03;;;;;;;;;;5074116;28;20196;-68
2023/05/06 11:03:22;;;;;;;8.13;5.07;;;;;;;;;;5073977;28;20526;-68
2023/05/06 11:05:50;;;;;;;7.00;5.10;;;;;;;;;;5073903;28;20542;-68
2023/05/06 11:08:21;;;;;;;12.43;6.77;;;;;;;;;;5074084;28;20177;-67
2023/05/06 11:10:47;;;;;;;12.00;7.10;;;;;;;;;;5073861;28;20663;-68
2023/05/06 11:13:20;;;;;;;12.67;7.47;;;;;;;;;;5073665;28;20182;-68
2023/05/06 11:15:49;;;;;;;12.37;7.37;;;;;;;;;;5074111;28;20191;-67
2023/05/06 11:18:40;;;;;;;11.70;7.27;;;;;;;;;;5073828;28;20264;-67
2023/05/06 11:21:06;;;;;;;14.97;5.60;;;;;;;;;;5073620;28;20272;-67
2023/05/06 11:23:41;;;;;;;5.50;3.93;;;;;;;;;;5073674;28;20205;-67
2023/05/06 11:26:08;;;;;;;5.13;3.83;;;;;;;;;;5055703;28;20192;-68
2023/05/06 11:28:34;;;;;;;5.90;3.80;;;;;;;;;;5074417;28;20200;-67
2023/05/06 11:31:00;;;;;;;6.33;2.83;;;;;;;;;;5055797;28;20202;-67
2023/05/06 11:33:27;;;;;;;7.47;3.97;;;;;;;;;;5055644;28;20589;-67
2023/05/06 11:35:53;;;;;;;10.03;4.30;;;;;;;;;;5073514;28;20198;-67
2023/05/06 11:38:19;;;;;;;5.63;4.30;;;;;;;;;;5055444;28;20178;-67
2023/05/06 11:40:45;;;;;;;6.50;3.93;;;;;;;;;;5055475;28;20228;-67
2023/05/06 11:43:15;;;;;;;6.90;4.40;;;;;;;;;;5073680;28;20264;-67
2023/05/06 11:45:45;;;;;;;8.43;4.50;;;;;;;;;;5073344;28;20254;-67
2023/05/06 11:48:11;;;;;;;4.27;3.13;;;;;;;;;;5073400;28;20719;-66
2023/05/06 11:50:37;;;;;;;5.73;3.50;;;;;;;;;;5055291;28;20209;-66
2023/05/06 11:53:03;;;;;;;8.73;3.80;;;;;;;;;;5073656;28;20178;-66
2023/05/06 11:55:30;;;;;;;4.20;2.70;;;;;;;;;;5055519;28;20564;-65
2023/05/06 11:57:56;;;;;;;3.97;3.00;;;;;;;;;;5055579;28;20178;-66
2023/05/06 12:00:21;;;;;;;7.00;3.47;;;;;;;;;;5056004;28;20201;-66
2023/05/06 12:02:47;;;;;;;4.90;2.63;;;;;;;;;;5059171;28;20185;-66
2023/05/06 12:05:13;;;;;;;4.03;2.90;;;;;;;;;;5074919;28;20658;-67
2023/05/06 12:07:42;;;;;;;4.80;3.50;;;;;;;;;;5073525;28;20531;-66
2023/05/06 12:10:08;;;;;;;3.57;2.70;;;;;;;;;;5073085;28;20247;-67
2023/05/06 12:12:34;;;;;;;5.70;5.10;;;;;;;;;;5055107;28;20618;-65
2023/05/06 12:15:00;;;;;;;8.30;4.77;;;;;;;;;;5054985;28;20302;-65
2023/05/06 12:17:26;;;;;;;6.97;4.23;;;;;;;;;;5055102;28;20236;-65
2023/05/06 12:19:52;;;;;;;6.03;4.43;;;;;;;;;;5073038;28;20202;-66
2023/05/06 12:22:19;;;;;;;5.70;3.40;;;;;;;;;;5073079;28;20196;-68
2023/05/06 12:24:46;;;;;;;6.10;3.63;;;;;;;;;;5056752;28;20174;-67
2023/05/06 12:27:12;;;;;;;3.83;3.22;;;;;;;;;;5074630;28;20087;-67
2023/05/06 12:29:38;;;;;;;3.63;2.40;;;;;;;;;;5073763;28;20198;-68
2023/05/06 12:32:08;;;;;;;2.50;2.10;;;;;;;;;;5055696;28;20648;-66
2023/05/06 12:34:40;;;;;;;3.83;2.73;;;;;;;;;;5073122;28;20256;-67
2023/05/06 12:37:07;;;;;;;3.10;2.80;;;;;;;;;;5054769;28;20670;-67
2023/05/06 12:39:34;;;;;;;4.33;2.73;;;;;;;;;;5054598;28;20217;-67
2023/05/06 12:42:01;;;;;;;3.43;2.60;;;;;;;;;;5054635;28;20604;-67
2023/05/06 12:44:37;;;;;;;4.00;2.90;;;;;;;;;;5073070;28;20201;-68
2023/05/06 12:47:04;;;;;;;3.60;2.63;;;;;;;;;;5072740;28;20185;-68
2023/05/06 12:49:45;;;;;;;5.57;3.00;;;;;;;;;;5054469;28;20220;-68
2023/05/06 12:52:11;;;;;;;4.07;3.10;;;;;;;;;;5073000;28;20257;-68
2023/05/06 12:54:37;;;;;;;5.73;4.37;;;;;;;;;;5054461;28;20178;-68
2023/05/06 12:57:03;;;;;;;5.90;3.10;;;;;;;;;;5075355;28;20178;-67
2023/05/06 12:59:30;;;;;;;4.83;3.27;;;;;;;;;;5058399;28;20314;-66
2023/05/06 13:01:57;;;;;;;6.33;2.43;;;;;;;;;;5076501;28;20174;-68
2023/05/06 13:04:23;;;;;;;3.33;2.60;;;;;;;;;;5076270;28;20234;-68
2023/05/06 13:06:50;;;;;;;3.97;2.80;;;;;;;;;;5076315;28;20230;-68
2023/05/06 13:09:16;;;;;;;3.53;2.70;;;;;;;;;;5058234;28;20197;-68
2023/05/06 13:11:42;;;;;;;6.10;2.80;;;;;;;;;;5058237;28;20189;-67
2023/05/06 13:14:08;;;;;;;3.30;2.73;;;;;;;;;;5076404;28;20200;-68
2023/05/06 13:16:34;;;;;;;4.33;2.87;;;;;;;;;;5076079;28;20201;-68
2023/05/06 13:19:00;;;;;;;5.13;2.70;;;;;;;;;;5076040;28;20185;-68
2023/05/06 13:21:26;;;;;;;3.87;2.57;;;;;;;;;;5076589;28;20247;-68
2023/05/06 13:23:52;;;;;;;5.23;2.67;;;;;;;;;;5076343;28;20624;-69
2023/05/06 13:26:18;;;;;;;4.60;3.20;;;;;;;;;;5076010;28;20177;-68
2023/05/06 13:28:44;;;;;;;6.50;3.20;;;;;;;;;;5076187;28;20181;-68
2023/05/06 13:31:10;;;;;;;3.97;3.13;;;;;;;;;;5058193;28;20181;-67
2023/05/06 13:33:36;;;;;;;6.57;3.37;;;;;;;;;;5076065;28;20178;-67
2023/05/06 13:36:02;;;;;;;8.67;3.23;;;;;;;;;;5075675;28;20205;-67
2023/05/06 13:38:28;;;;;;;6.17;3.60;;;;;;;;;;5076138;28;20177;-68
2023/05/06 13:40:54;;;;;;;5.33;3.20;;;;;;;;;;5075579;28;20213;-67
2023/05/06 13:43:21;;;;;;;5.93;3.20;;;;;;;;;;5075772;28;20676;-68
2023/05/06 13:45:47;;;;;;;5.67;3.07;;;;;;;;;;5075997;28;20173;-67
2023/05/06 13:48:13;;;;;;;5.87;2.67;;;;;;;;;;5058683;28;20186;-69
2023/05/06 13:50:42;;;;;;;7.37;3.30;;;;;;;;;;5076794;28;20205;-68
2023/05/06 13:53:08;;;;;;;5.00;3.43;;;;;;;;;;5076691;28;20178;-68
2023/05/06 13:55:35;;;;;;;6.90;3.60;;;;;;;;;;5076899;28;20206;-67
2023/05/06 13:58:00;;;;;;;7.83;3.43;;;;;;;;;;5086413;28;20253;-68
2023/05/06 14:00:26;;;;;;;6.50;3.20;;;;;;;;;;5058241;28;20260;-68
2023/05/06 14:02:52;;;;;;;5.87;3.00;;;;;;;;;;5076059;28;20177;-68
2023/05/06 14:05:18;;;;;;;6.30;3.33;;;;;;;;;;5058728;28;20186;-68
2023/05/06 14:07:44;;;;;;;6.72;2.95;;;;;;;;;;5074872;28;20178;-68
2023/05/06 14:10:10;;;;;;;4.60;2.85;;;;;;;;;;5057033;28;20221;-68
2023/05/06 14:12:36;;;;;;;5.68;3.13;;;;;;;;;;5075224;28;20180;-68
2023/05/06 14:15:04;;;;;;;6.93;3.10;;;;;;;;;;5057024;28;20827;-68
2023/05/06 14:17:30;;;;;;;4.78;2.80;;;;;;;;;;5075126;28;20266;-68
2023/05/06 14:19:56;;;;;;;4.23;2.50;;;;;;;;;;5075593;28;20225;-68
2023/05/06 14:22:22;;;;;;;3.50;2.53;;;;;;;;;;5074958;28;20180;-68